createdAt,value
2024-05-09T00:00:57.419Z,1023.68
2024-05-09T00:01:57.423Z,1023.70
2024-05-09T00:02:57.469Z,1023.65
2024-05-09T00:03:57.475Z,1023.63
2024-05-09T00:04:57.452Z,1023.65
2024-05-09T00:05:57.369Z,1023.68
2024-05-09T00:06:57.407Z,1023.64
2024-05-09T00:07:57.324Z,1023.62
2024-05-09T00:08:57.320Z,1023.65
2024-05-09T00:09:57.327Z,1023.61
2024-05-09T00:10:57.435Z,1023.63
2024-05-09T00:11:57.343Z,1023.61
2024-05-09T00:12:57.290Z,1023.63
2024-05-09T00:13:57.809Z,1023.61
2024-05-09T00:14:57.222Z,1023.60
2024-05-09T00:15:57.211Z,1023.65
2024-05-09T00:16:57.229Z,1023.66
2024-05-09T00:17:57.364Z,1023.62
2024-05-09T00:18:57.225Z,1023.66
2024-05-09T00:19:57.182Z,1023.66
2024-05-09T00:20:57.158Z,1023.64
2024-05-09T00:21:57.106Z,1023.66
2024-05-09T00:22:57.163Z,1023.64
2024-05-09T00:23:57.089Z,1023.64
2024-05-09T00:24:57.087Z,1023.60
2024-05-09T00:25:57.110Z,1023.59
2024-05-09T00:26:57.108Z,1023.68
2024-05-09T00:27:57.210Z,1023.61
2024-05-09T00:28:57.102Z,1023.58
2024-05-09T00:29:57.028Z,1023.60
2024-05-09T00:30:56.990Z,1023.53
2024-05-09T00:31:57.061Z,1023.55
2024-05-09T00:32:57.064Z,1023.52
2024-05-09T00:33:57.122Z,1023.50
2024-05-09T00:34:57.008Z,1023.51
2024-05-09T00:35:56.945Z,1023.50
2024-05-09T00:36:56.932Z,1023.52
2024-05-09T00:37:56.973Z,1023.53
2024-05-09T00:38:56.892Z,1023.49
2024-05-09T00:39:56.933Z,1023.50
2024-05-09T00:40:56.929Z,1023.51
2024-05-09T00:41:56.929Z,1023.53
2024-05-09T00:42:56.861Z,1023.49
2024-05-09T00:43:56.935Z,1023.54
2024-05-09T00:44:56.829Z,1023.48
2024-05-09T00:45:56.882Z,1023.56
2024-05-09T00:46:56.840Z,1023.56
2024-05-09T00:47:57.032Z,1023.54
2024-05-09T00:48:56.979Z,1023.54
2024-05-09T00:49:56.787Z,1023.51
2024-05-09T00:50:56.771Z,1023.55
2024-05-09T00:51:56.727Z,1023.54
2024-05-09T00:52:56.783Z,1023.53
2024-05-09T00:53:56.715Z,1023.54
2024-05-09T00:54:56.724Z,1023.50
2024-05-09T00:55:56.727Z,1023.53
2024-05-09T00:56:56.846Z,1023.53
2024-05-09T00:57:56.656Z,1023.53
2024-05-09T00:58:56.661Z,1023.57
2024-05-09T00:59:56.674Z,1023.57
2024-05-09T01:00:56.652Z,1023.54
2024-05-09T01:01:56.784Z,1023.54
2024-05-09T01:02:56.690Z,1023.53
2024-05-09T01:03:56.668Z,1023.58
2024-05-09T01:04:56.730Z,1023.56
2024-05-09T01:05:56.747Z,1023.59
2024-05-09T01:06:56.531Z,1023.54
2024-05-09T01:07:56.556Z,1023.51
2024-05-09T01:08:56.495Z,1023.50
2024-05-09T01:09:56.543Z,1023.54
2024-05-09T01:10:56.636Z,1023.51
2024-05-09T01:11:56.582Z,1023.53
2024-05-09T01:12:56.495Z,1023.49
2024-05-09T01:13:56.509Z,1023.52
2024-05-09T01:14:56.454Z,1023.53
2024-05-09T01:15:56.403Z,1023.47
2024-05-09T01:16:56.500Z,1023.45
2024-05-09T01:17:56.921Z,1023.44
2024-05-09T01:18:56.555Z,1023.45
2024-05-09T01:19:56.407Z,1023.51
2024-05-09T01:20:56.360Z,1023.49
2024-05-09T01:21:56.385Z,1023.53
2024-05-09T01:22:56.361Z,1023.54
2024-05-09T01:23:56.348Z,1023.52
2024-05-09T01:24:56.363Z,1023.53
2024-05-09T01:25:56.350Z,1023.54
2024-05-09T01:26:56.322Z,1023.52
2024-05-09T01:27:56.250Z,1023.58
2024-05-09T01:28:56.334Z,1023.55
2024-05-09T01:29:56.305Z,1023.53
2024-05-09T01:30:56.189Z,1023.52
2024-05-09T01:31:56.247Z,1023.55
2024-05-09T01:32:56.430Z,1023.56
2024-05-09T01:33:56.438Z,1023.51
2024-05-09T01:34:56.190Z,1023.56
2024-05-09T01:35:56.135Z,1023.58
2024-05-09T01:36:56.131Z,1023.55
2024-05-09T01:37:56.404Z,1023.52
2024-05-09T01:38:56.112Z,1023.50
2024-05-09T01:39:56.081Z,1023.50
2024-05-09T01:40:56.409Z,1023.48
2024-05-09T01:41:56.049Z,1023.53
2024-05-09T01:42:56.057Z,1023.49
2024-05-09T01:43:56.100Z,1023.47
2024-05-09T01:44:56.039Z,1023.43
2024-05-09T01:45:56.478Z,1023.45
2024-05-09T01:46:56.067Z,1023.40
2024-05-09T01:47:56.363Z,1023.44
2024-05-09T01:48:56.020Z,1023.44
2024-05-09T01:49:56.037Z,1023.42
2024-05-09T01:50:55.975Z,1023.39
2024-05-09T01:51:55.969Z,1023.38
2024-05-09T01:52:55.961Z,1023.36
2024-05-09T01:53:55.938Z,1023.36
2024-05-09T01:54:55.954Z,1023.35
2024-05-09T01:55:55.890Z,1023.35
2024-05-09T01:56:55.874Z,1023.34
2024-05-09T01:57:55.846Z,1023.31
2024-05-09T01:58:55.878Z,1023.38
2024-05-09T01:59:55.817Z,1023.35
2024-05-09T02:00:55.874Z,1023.36
2024-05-09T02:01:57.709Z,1023.34
2024-05-09T02:02:55.852Z,1023.38
2024-05-09T02:03:55.944Z,1023.34
2024-05-09T02:04:55.883Z,1023.36
2024-05-09T02:05:55.805Z,1023.36
2024-05-09T02:06:55.773Z,1023.35
2024-05-09T02:07:55.870Z,1023.34
2024-05-09T02:08:56.091Z,1023.30
2024-05-09T02:09:55.675Z,1023.32
2024-05-09T02:10:55.837Z,1023.30
2024-05-09T02:11:55.773Z,1023.30
2024-05-09T02:12:55.691Z,1023.31
2024-05-09T02:13:55.631Z,1023.30
2024-05-09T02:14:55.669Z,1023.29
2024-05-09T02:15:55.636Z,1023.29
2024-05-09T02:16:55.612Z,1023.28
2024-05-09T02:17:55.769Z,1023.34
2024-05-09T02:18:55.636Z,1023.33
2024-05-09T02:19:55.649Z,1023.31
2024-05-09T02:20:55.622Z,1023.35
2024-05-09T02:21:55.528Z,1023.37
2024-05-09T02:22:55.516Z,1023.37
2024-05-09T02:23:55.524Z,1023.35
2024-05-09T02:24:55.501Z,1023.33
2024-05-09T02:25:55.554Z,1023.37
2024-05-09T02:26:55.469Z,1023.34
2024-05-09T02:27:55.485Z,1023.38
2024-05-09T02:28:55.485Z,1023.34
2024-05-09T02:29:55.463Z,1023.32
2024-05-09T02:30:55.472Z,1023.32
2024-05-09T02:31:55.573Z,1023.31
2024-05-09T02:32:55.471Z,1023.34
2024-05-09T02:33:55.777Z,1023.34
2024-05-09T02:34:55.425Z,1023.34
2024-05-09T02:35:55.350Z,1023.34
2024-05-09T02:36:55.340Z,1023.38
2024-05-09T02:37:55.313Z,1023.37
2024-05-09T02:38:55.320Z,1023.35
2024-05-09T02:39:55.319Z,1023.37
2024-05-09T02:40:55.321Z,1023.36
2024-05-09T02:41:55.293Z,1023.35
2024-05-09T02:42:55.240Z,1023.35
2024-05-09T02:43:55.282Z,1023.33
2024-05-09T02:44:55.283Z,1023.30
2024-05-09T02:45:55.228Z,1023.36
2024-05-09T02:46:55.510Z,1023.28
2024-05-09T02:47:55.346Z,1023.31
2024-05-09T02:48:55.364Z,1023.31
2024-05-09T02:49:55.211Z,1023.33
2024-05-09T02:50:55.202Z,1023.35
2024-05-09T02:51:55.142Z,1023.39
2024-05-09T02:52:55.201Z,1023.36
2024-05-09T02:53:55.200Z,1023.37
2024-05-09T02:54:55.083Z,1023.36
2024-05-09T02:55:55.197Z,1023.36
2024-05-09T02:56:55.074Z,1023.32
2024-05-09T02:57:55.078Z,1023.34
2024-05-09T02:58:55.063Z,1023.35
2024-05-09T02:59:55.128Z,1023.36
2024-05-09T03:00:55.050Z,1023.35
2024-05-09T03:01:55.089Z,1023.33
2024-05-09T03:02:55.137Z,1023.37
2024-05-09T03:03:55.167Z,1023.36
2024-05-09T03:04:55.038Z,1023.37
2024-05-09T03:05:54.995Z,1023.34
2024-05-09T03:06:55.005Z,1023.33
2024-05-09T03:07:55.022Z,1023.33
2024-05-09T03:08:54.898Z,1023.33
2024-05-09T03:09:54.901Z,1023.31
2024-05-09T03:10:54.916Z,1023.37
2024-05-09T03:11:55.053Z,1023.30
2024-05-09T03:12:54.863Z,1023.35
2024-05-09T03:13:54.878Z,1023.31
2024-05-09T03:14:54.850Z,1023.32
2024-05-09T03:15:54.828Z,1023.38
2024-05-09T03:16:54.850Z,1023.37
2024-05-09T03:17:54.930Z,1023.37
2024-05-09T03:18:54.883Z,1023.34
2024-05-09T03:19:54.822Z,1023.37
2024-05-09T03:20:54.699Z,1023.31
2024-05-09T03:21:54.757Z,1023.29
2024-05-09T03:22:56.765Z,1023.33
2024-05-09T03:23:54.760Z,1023.32
2024-05-09T03:24:54.700Z,1023.28
2024-05-09T03:25:54.812Z,1023.29
2024-05-09T03:26:54.646Z,1023.27
2024-05-09T03:27:54.648Z,1023.28
2024-05-09T03:28:54.722Z,1023.30
2024-05-09T03:29:54.594Z,1023.34
2024-05-09T03:30:54.598Z,1023.31
2024-05-09T03:31:54.694Z,1023.34
2024-05-09T03:32:54.662Z,1023.31
2024-05-09T03:33:54.721Z,1023.34
2024-05-09T03:34:54.557Z,1023.32
2024-05-09T03:35:54.528Z,1023.34
2024-05-09T03:36:54.541Z,1023.32
2024-05-09T03:37:54.495Z,1023.27
2024-05-09T03:38:54.505Z,1023.29
2024-05-09T03:39:54.489Z,1023.28
2024-05-09T03:40:54.488Z,1023.29
2024-05-09T03:41:54.959Z,1023.28
2024-05-09T03:42:54.409Z,1023.34
2024-05-09T03:43:54.437Z,1023.32
2024-05-09T03:44:54.396Z,1023.30
2024-05-09T03:45:54.482Z,1023.31
2024-05-09T03:46:54.399Z,1023.32
2024-05-09T03:47:54.598Z,1023.30
2024-05-09T03:48:54.458Z,1023.30
2024-05-09T03:49:54.383Z,1023.25
2024-05-09T03:50:54.370Z,1023.27
2024-05-09T03:51:54.404Z,1023.26
2024-05-09T03:52:54.359Z,1023.26
2024-05-09T03:53:54.324Z,1023.27
2024-05-09T03:54:54.271Z,1023.29
2024-05-09T03:55:54.288Z,1023.27
2024-05-09T03:56:54.205Z,1023.31
2024-05-09T03:57:54.186Z,1023.31
2024-05-09T03:58:54.264Z,1023.26
2024-05-09T03:59:54.170Z,1023.28
2024-05-09T04:00:54.219Z,1023.27
2024-05-09T04:01:54.239Z,1023.22
2024-05-09T04:02:54.276Z,1023.22
2024-05-09T04:03:54.310Z,1023.30
2024-05-09T04:04:54.286Z,1023.25
2024-05-09T04:05:54.110Z,1023.29
2024-05-09T04:06:54.080Z,1023.28
2024-05-09T04:07:54.172Z,1023.26
2024-05-09T04:08:54.087Z,1023.28
2024-05-09T04:09:54.066Z,1023.30
2024-05-09T04:10:54.111Z,1023.28
2024-05-09T04:11:54.220Z,1023.29
2024-05-09T04:12:54.047Z,1023.31
2024-05-09T04:13:54.110Z,1023.31
2024-05-09T04:14:53.978Z,1023.31
2024-05-09T04:15:53.979Z,1023.31
2024-05-09T04:16:53.975Z,1023.36
2024-05-09T04:17:54.193Z,1023.31
2024-05-09T04:18:53.983Z,1023.34
2024-05-09T04:19:53.956Z,1023.32
2024-05-09T04:20:53.968Z,1023.32
2024-05-09T04:21:53.899Z,1023.31
2024-05-09T04:22:53.933Z,1023.31
2024-05-09T04:23:53.942Z,1023.34
2024-05-09T04:24:53.988Z,1023.32
2024-05-09T04:25:53.992Z,1023.34
2024-05-09T04:26:54.114Z,1023.36
2024-05-09T04:27:53.868Z,1023.36
2024-05-09T04:28:53.871Z,1023.38
2024-05-09T04:29:53.807Z,1023.36
2024-05-09T04:30:53.808Z,1023.35
2024-05-09T04:31:54.114Z,1023.39
2024-05-09T04:32:53.884Z,1023.39
2024-05-09T04:33:53.885Z,1023.40
2024-05-09T04:34:53.739Z,1023.38
2024-05-09T04:35:53.717Z,1023.41
2024-05-09T04:36:53.695Z,1023.41
2024-05-09T04:37:53.745Z,1023.39
2024-05-09T04:38:53.648Z,1023.42
2024-05-09T04:39:53.631Z,1023.41
2024-05-09T04:40:53.740Z,1023.45
2024-05-09T04:41:53.714Z,1023.46
2024-05-09T04:42:53.600Z,1023.45
2024-05-09T04:43:53.627Z,1023.43
2024-05-09T04:44:56.519Z,1023.45
2024-05-09T04:45:53.591Z,1023.48
2024-05-09T04:46:53.581Z,1023.48
2024-05-09T04:47:53.805Z,1023.51
2024-05-09T04:48:54.695Z,1023.42
2024-05-09T04:49:53.558Z,1023.50
2024-05-09T04:50:53.553Z,1023.44
2024-05-09T04:51:53.472Z,1023.42
2024-05-09T04:52:53.503Z,1023.42
2024-05-09T04:53:54.135Z,1023.45
2024-05-09T04:55:00.098Z,1023.43
2024-05-09T04:55:59.515Z,1023.43
2024-05-09T04:56:59.471Z,1023.45
2024-05-09T04:57:59.947Z,1023.46
2024-05-09T04:58:59.693Z,1023.46
2024-05-09T04:59:59.890Z,1023.45
2024-05-09T05:00:59.554Z,1023.46
2024-05-09T05:01:59.967Z,1023.45
2024-05-09T05:02:53.709Z,1023.43
2024-05-09T05:03:54.905Z,1023.46
2024-05-09T05:04:53.493Z,1023.43
2024-05-09T05:05:53.373Z,1023.40
2024-05-09T05:06:53.287Z,1023.44
2024-05-09T05:07:53.405Z,1023.39
2024-05-09T05:08:53.287Z,1023.45
2024-05-09T05:09:53.242Z,1023.47
2024-05-09T05:10:53.387Z,1023.46
2024-05-09T05:11:53.302Z,1023.42
2024-05-09T05:12:53.209Z,1023.45
2024-05-09T05:13:53.216Z,1023.47
2024-05-09T05:14:53.211Z,1023.51
2024-05-09T05:15:53.573Z,1023.52
2024-05-09T05:16:53.174Z,1023.52
2024-05-09T05:17:53.292Z,1023.52
2024-05-09T05:18:53.334Z,1023.56
2024-05-09T05:19:53.238Z,1023.60
2024-05-09T05:20:53.183Z,1023.64
2024-05-09T05:21:53.097Z,1023.60
2024-05-09T05:22:53.125Z,1023.62
2024-05-09T05:23:53.095Z,1023.64
2024-05-09T05:24:53.044Z,1023.61
2024-05-09T05:25:53.756Z,1023.59
2024-05-09T05:26:53.294Z,1023.63
2024-05-09T05:27:52.992Z,1023.59
2024-05-09T05:28:53.272Z,1023.59
2024-05-09T05:29:53.003Z,1023.62
2024-05-09T05:30:53.017Z,1023.64
2024-05-09T05:31:53.163Z,1023.63
2024-05-09T05:32:53.036Z,1023.64
2024-05-09T05:33:53.048Z,1023.62
2024-05-09T05:34:52.991Z,1023.64
2024-05-09T05:35:52.912Z,1023.63
2024-05-09T05:36:52.895Z,1023.61
2024-05-09T05:37:52.943Z,1023.60
2024-05-09T05:38:52.892Z,1023.65
2024-05-09T05:39:52.853Z,1023.62
2024-05-09T05:40:52.938Z,1023.65
2024-05-09T05:41:52.904Z,1023.64
2024-05-09T05:42:52.801Z,1023.69
2024-05-09T05:43:52.840Z,1023.64
2024-05-09T05:44:52.799Z,1023.64
2024-05-09T05:45:52.793Z,1023.63
2024-05-09T05:46:52.809Z,1023.65
2024-05-09T05:47:53.033Z,1023.66
2024-05-09T05:48:52.750Z,1023.65
2024-05-09T05:49:52.758Z,1023.69
2024-05-09T05:50:52.767Z,1023.71
2024-05-09T05:51:52.705Z,1023.72
2024-05-09T05:52:52.716Z,1023.74
2024-05-09T05:53:52.687Z,1023.74
2024-05-09T05:54:52.703Z,1023.78
2024-05-09T05:55:52.709Z,1023.78
2024-05-09T05:56:52.727Z,1023.80
2024-05-09T05:57:52.603Z,1023.80
2024-05-09T05:58:52.655Z,1023.81
2024-05-09T05:59:52.617Z,1023.85
2024-05-09T06:00:52.658Z,1023.81
2024-05-09T06:01:52.568Z,1023.80
2024-05-09T06:02:52.756Z,1023.79
2024-05-09T06:03:52.693Z,1023.78
2024-05-09T06:04:52.723Z,1023.75
2024-05-09T06:05:52.640Z,1023.78
2024-05-09T06:06:52.507Z,1023.79
2024-05-09T06:07:52.571Z,1023.77
2024-05-09T06:08:52.664Z,1023.80
2024-05-09T06:09:52.466Z,1023.76
2024-05-09T06:10:52.984Z,1023.80
2024-05-09T06:11:52.500Z,1023.83
2024-05-09T06:12:52.401Z,1023.81
2024-05-09T06:13:52.458Z,1023.80
2024-05-09T06:14:52.393Z,1023.78
2024-05-09T06:15:52.379Z,1023.77
2024-05-09T06:16:54.095Z,1023.76
2024-05-09T06:17:52.469Z,1023.75
2024-05-09T06:18:52.524Z,1023.76
2024-05-09T06:19:52.510Z,1023.72
2024-05-09T06:20:52.364Z,1023.69
2024-05-09T06:21:52.280Z,1023.68
2024-05-09T06:22:52.397Z,1023.70
2024-05-09T06:23:52.339Z,1023.67
2024-05-09T06:24:52.253Z,1023.66
2024-05-09T06:25:52.234Z,1023.67
2024-05-09T06:26:52.216Z,1023.60
2024-05-09T06:27:52.246Z,1023.58
2024-05-09T06:28:52.298Z,1023.60
2024-05-09T06:29:52.176Z,1023.62
2024-05-09T06:30:52.173Z,1023.61
2024-05-09T06:31:52.529Z,1023.64
2024-05-09T06:32:52.444Z,1023.58
2024-05-09T06:33:52.473Z,1023.65
2024-05-09T06:34:52.232Z,1023.63
2024-05-09T06:35:52.261Z,1023.61
2024-05-09T06:36:52.141Z,1023.61
2024-05-09T06:37:52.105Z,1023.57
2024-05-09T06:38:52.063Z,1023.58
2024-05-09T06:39:52.172Z,1023.56
2024-05-09T06:40:52.101Z,1023.57
2024-05-09T06:41:52.108Z,1023.59
2024-05-09T06:42:52.011Z,1023.59
2024-05-09T06:43:52.104Z,1023.60
2024-05-09T06:44:52.091Z,1023.59
2024-05-09T06:45:52.035Z,1023.65
2024-05-09T06:46:52.091Z,1023.64
2024-05-09T06:47:52.044Z,1023.66
2024-05-09T06:48:52.161Z,1023.63
2024-05-09T06:49:51.992Z,1023.70
2024-05-09T06:50:52.208Z,1023.68
2024-05-09T06:51:51.910Z,1023.68
2024-05-09T06:52:51.906Z,1023.65
2024-05-09T06:53:51.883Z,1023.71
2024-05-09T06:54:51.876Z,1023.67
2024-05-09T06:55:51.886Z,1023.69
2024-05-09T06:56:51.877Z,1023.66
2024-05-09T06:57:51.821Z,1023.65
2024-05-09T06:58:51.941Z,1023.64
2024-05-09T06:59:51.817Z,1023.65
2024-05-09T07:00:51.929Z,1023.67
2024-05-09T07:01:51.815Z,1023.69
2024-05-09T07:02:51.872Z,1023.68
2024-05-09T07:03:51.832Z,1023.70
2024-05-09T07:04:51.840Z,1023.72
2024-05-09T07:05:51.740Z,1023.73
2024-05-09T07:06:51.692Z,1023.76
2024-05-09T07:07:51.722Z,1023.76
2024-05-09T07:08:52.656Z,1023.73
2024-05-09T07:09:51.678Z,1023.73
2024-05-09T07:10:51.796Z,1023.76
2024-05-09T07:11:51.732Z,1023.74
2024-05-09T07:12:51.624Z,1023.76
2024-05-09T07:13:51.639Z,1023.76
2024-05-09T07:14:51.678Z,1023.75
2024-05-09T07:15:51.623Z,1023.80
2024-05-09T07:16:51.625Z,1023.77
2024-05-09T07:17:51.693Z,1023.73
2024-05-09T07:18:51.774Z,1023.75
2024-05-09T07:19:51.595Z,1023.76
2024-05-09T07:20:51.553Z,1023.75
2024-05-09T07:21:51.509Z,1023.74
2024-05-09T07:22:51.572Z,1023.68
2024-05-09T07:23:51.691Z,1023.73
2024-05-09T07:24:51.482Z,1023.74
2024-05-09T07:25:51.632Z,1023.74
2024-05-09T07:26:51.458Z,1023.69
2024-05-09T07:27:51.429Z,1023.71
2024-05-09T07:28:51.525Z,1023.74
2024-05-09T07:29:51.418Z,1023.73
2024-05-09T07:30:51.619Z,1023.66
2024-05-09T07:31:51.446Z,1023.72
2024-05-09T07:32:51.687Z,1023.71
2024-05-09T07:33:51.474Z,1023.72
2024-05-09T07:34:51.407Z,1023.71
2024-05-09T07:35:51.402Z,1023.73
2024-05-09T07:36:51.298Z,1023.73
2024-05-09T07:37:51.346Z,1023.72
2024-05-09T07:38:51.360Z,1023.71
2024-05-09T07:39:51.264Z,1023.75
2024-05-09T07:40:51.338Z,1023.69
2024-05-09T07:41:51.267Z,1023.69
2024-05-09T07:42:51.319Z,1023.66
2024-05-09T07:43:51.263Z,1023.71
2024-05-09T07:44:51.204Z,1023.70
2024-05-09T07:45:54.306Z,1023.72
2024-05-09T07:47:52.334Z,1023.66
2024-05-09T07:51:31.664Z,1023.67
2024-05-09T07:53:37.247Z,1023.70
2024-05-09T07:53:51.946Z,1023.66
2024-05-09T07:54:23.369Z,1023.69
2024-05-09T07:55:23.416Z,1023.65
2024-05-09T07:56:24.298Z,1023.65
2024-05-09T07:57:23.171Z,1023.65
2024-05-09T07:58:23.143Z,1023.64
2024-05-09T07:59:23.091Z,1023.65
2024-05-09T08:00:29.763Z,1023.64
2024-05-09T08:01:23.192Z,1023.65
2024-05-09T08:02:23.266Z,1023.65
2024-05-09T08:03:23.439Z,1023.63
2024-05-09T08:04:25.235Z,1023.64
2024-05-09T08:05:23.160Z,1023.58
2024-05-09T08:06:23.011Z,1023.59
2024-05-09T08:07:23.063Z,1023.58
2024-05-09T08:08:22.975Z,1023.61
2024-05-09T08:09:23.000Z,1023.55
2024-05-09T08:10:27.459Z,1023.58
2024-05-09T08:11:22.980Z,1023.53
2024-05-09T08:12:22.933Z,1023.53
2024-05-09T08:13:23.274Z,1023.51
2024-05-09T08:14:22.940Z,1023.53
2024-05-09T08:15:22.935Z,1023.53
2024-05-09T08:16:23.084Z,1023.53
2024-05-09T08:17:22.982Z,1023.51
2024-05-09T08:18:22.971Z,1023.54
2024-05-09T08:19:22.931Z,1023.51
2024-05-09T08:20:30.670Z,1023.51
2024-05-09T08:21:22.846Z,1023.54
2024-05-09T08:22:22.786Z,1023.50
2024-05-09T08:23:22.790Z,1023.52
2024-05-09T08:24:22.830Z,1023.51
2024-05-09T08:25:22.845Z,1023.47
2024-05-09T08:26:22.743Z,1023.44
2024-05-09T08:27:23.500Z,1023.45
2024-05-09T08:28:22.803Z,1023.49
2024-05-09T08:29:22.733Z,1023.44
2024-05-09T08:30:29.781Z,1023.47
2024-05-09T08:31:22.867Z,1023.46
2024-05-09T08:32:22.712Z,1023.43
2024-05-09T08:33:22.823Z,1023.37
2024-05-09T08:34:22.874Z,1023.32
2024-05-09T08:35:22.693Z,1023.33
2024-05-09T08:36:22.629Z,1023.33
2024-05-09T08:37:26.062Z,1023.30
2024-05-09T08:38:22.645Z,1023.25
2024-05-09T08:39:22.585Z,1023.25
2024-05-09T08:40:30.685Z,1023.21
2024-05-09T08:41:22.646Z,1023.22
2024-05-09T08:42:22.635Z,1023.21
2024-05-09T08:43:22.570Z,1023.19
2024-05-09T08:44:22.492Z,1023.19
2024-05-09T08:45:22.721Z,1023.20
2024-05-09T08:46:22.555Z,1023.14
2024-05-09T08:47:22.801Z,1023.12
2024-05-09T08:48:22.616Z,1023.13
2024-05-09T08:49:22.530Z,1023.16
2024-05-09T08:50:31.983Z,1023.08
2024-05-09T08:51:22.425Z,1023.12
2024-05-09T08:52:22.408Z,1023.01
2024-05-09T08:53:22.398Z,1023.01
2024-05-09T08:54:22.427Z,1022.95
2024-05-09T08:55:22.344Z,1022.94
2024-05-09T08:56:22.353Z,1022.93
2024-05-09T08:57:22.364Z,1022.95
2024-05-09T08:58:22.393Z,1022.93
2024-05-09T08:59:22.300Z,1022.95
2024-05-09T09:00:33.356Z,1022.97
2024-05-09T09:01:22.451Z,1022.98
2024-05-09T09:02:22.512Z,1023.03
2024-05-09T09:03:22.321Z,1023.00
2024-05-09T09:04:22.317Z,1023.01
2024-05-09T09:05:22.309Z,1022.98
2024-05-09T09:06:22.270Z,1022.96
2024-05-09T09:07:22.292Z,1022.96
2024-05-09T09:08:22.192Z,1022.94
2024-05-09T09:09:22.204Z,1022.95
2024-05-09T09:10:29.593Z,1022.96
2024-05-09T09:11:22.453Z,1022.92
2024-05-09T09:12:22.146Z,1022.91
2024-05-09T09:13:22.163Z,1022.94
2024-05-09T09:14:22.111Z,1022.95
2024-05-09T09:15:22.180Z,1022.95
2024-05-09T09:16:22.125Z,1022.93
2024-05-09T09:17:22.231Z,1022.91
2024-05-09T09:18:22.143Z,1022.91
2024-05-09T09:19:22.198Z,1022.90
2024-05-09T09:20:28.750Z,1022.89
2024-05-09T09:21:22.046Z,1022.79
2024-05-09T09:22:22.062Z,1022.76
2024-05-09T09:23:22.017Z,1022.71
2024-05-09T09:24:22.015Z,1022.70
2024-05-09T09:25:22.014Z,1022.69
2024-05-09T09:26:21.943Z,1022.65
2024-05-09T09:27:21.939Z,1022.63
2024-05-09T09:28:22.009Z,1022.67
2024-05-09T09:29:21.987Z,1022.63
2024-05-09T09:30:34.056Z,1022.59
2024-05-09T09:31:21.920Z,1022.70
2024-05-09T09:32:22.044Z,1022.64
2024-05-09T09:33:21.941Z,1022.61
2024-05-09T09:34:21.949Z,1022.63
2024-05-09T09:35:21.868Z,1022.56
2024-05-09T09:36:21.957Z,1022.60
2024-05-09T09:37:21.820Z,1022.62
2024-05-09T09:38:22.402Z,1022.65
2024-05-09T09:39:21.808Z,1022.61
2024-05-09T09:40:22.439Z,1022.66
2024-05-09T09:41:21.751Z,1022.64
2024-05-09T09:42:21.729Z,1022.61
2024-05-09T09:43:22.413Z,1022.66
2024-05-09T09:44:21.728Z,1022.65
2024-05-09T09:45:21.764Z,1022.65
2024-05-09T09:46:21.724Z,1022.64
2024-05-09T09:47:21.768Z,1022.63
2024-05-09T09:48:22.182Z,1022.64
2024-05-09T09:49:21.717Z,1022.59
2024-05-09T09:50:27.878Z,1022.62
2024-05-09T09:51:21.728Z,1022.63
2024-05-09T09:52:21.751Z,1022.61
2024-05-09T09:53:21.752Z,1022.60
2024-05-09T09:54:21.600Z,1022.61
2024-05-09T09:55:21.837Z,1022.57
2024-05-09T09:56:21.582Z,1022.60
2024-05-09T09:57:21.662Z,1022.54
2024-05-09T09:58:21.643Z,1022.53
2024-05-09T09:59:21.544Z,1022.57
2024-05-09T10:00:27.121Z,1022.51
2024-05-09T10:01:21.606Z,1022.53
2024-05-09T10:02:21.683Z,1022.49
2024-05-09T10:03:21.669Z,1022.54
2024-05-09T10:04:21.522Z,1022.53
2024-05-09T10:05:21.587Z,1022.50
2024-05-09T10:06:21.500Z,1022.52
2024-05-09T10:07:21.578Z,1022.53
2024-05-09T10:08:21.410Z,1022.51
2024-05-09T10:09:21.390Z,1022.50
2024-05-09T10:10:29.854Z,1022.46
2024-05-09T10:11:21.431Z,1022.48
2024-05-09T10:12:21.386Z,1022.47
2024-05-09T10:13:21.451Z,1022.41
2024-05-09T10:14:21.375Z,1022.40
2024-05-09T10:15:21.392Z,1022.43
2024-05-09T10:16:21.547Z,1022.37
2024-05-09T10:17:21.330Z,1022.41
2024-05-09T10:18:21.377Z,1022.35
2024-05-09T10:19:21.301Z,1022.37
2024-05-09T10:20:25.043Z,1022.32
2024-05-09T10:21:21.264Z,1022.25
2024-05-09T10:22:21.280Z,1022.25
2024-05-09T10:23:21.217Z,1022.20
2024-05-09T10:24:21.228Z,1022.19
2024-05-09T10:25:21.443Z,1022.20
2024-05-09T10:26:21.170Z,1022.15
2024-05-09T10:27:21.161Z,1022.17
2024-05-09T10:28:21.172Z,1022.15
2024-05-09T10:29:21.128Z,1022.16
2024-05-09T10:30:26.002Z,1022.12
2024-05-09T10:31:21.128Z,1022.11
2024-05-09T10:32:21.187Z,1022.16
2024-05-09T10:33:21.193Z,1022.17
2024-05-09T10:34:21.251Z,1022.13
2024-05-09T10:35:21.113Z,1022.09
2024-05-09T10:36:21.030Z,1022.11
2024-05-09T10:37:21.075Z,1022.09
2024-05-09T10:38:21.021Z,1022.10
2024-05-09T10:39:21.054Z,1022.11
2024-05-09T10:40:26.473Z,1022.06
2024-05-09T10:41:20.989Z,1022.02
2024-05-09T10:42:20.961Z,1022.01
2024-05-09T10:43:21.160Z,1021.99
2024-05-09T10:44:20.946Z,1021.97
2024-05-09T10:45:21.007Z,1022.02
2024-05-09T10:46:21.216Z,1022.05
2024-05-09T10:47:20.926Z,1022.00
2024-05-09T10:48:21.042Z,1021.98
2024-05-09T10:49:20.967Z,1022.07
2024-05-09T10:50:28.090Z,1022.13
2024-05-09T10:51:20.837Z,1022.07
2024-05-09T10:52:20.919Z,1022.08
2024-05-09T10:53:20.868Z,1022.06
2024-05-09T10:54:20.847Z,1022.06
2024-05-09T10:55:20.978Z,1022.05
2024-05-09T10:56:20.784Z,1022.01
2024-05-09T10:57:20.762Z,1022.01
2024-05-09T10:58:20.784Z,1022.01
2024-05-09T10:59:20.767Z,1022.03
2024-05-09T11:00:27.587Z,1022.01
2024-05-09T11:01:20.850Z,1021.97
2024-05-09T11:02:20.980Z,1021.95
2024-05-09T11:03:20.788Z,1021.95
2024-05-09T11:04:20.920Z,1021.97
2024-05-09T11:05:20.935Z,1021.95
2024-05-09T11:06:20.653Z,1021.96
2024-05-09T11:07:20.725Z,1021.97
2024-05-09T11:08:20.656Z,1021.95
2024-05-09T11:09:20.611Z,1021.91
2024-05-09T11:10:27.430Z,1021.92
2024-05-09T11:11:20.604Z,1021.95
2024-05-09T11:12:21.399Z,1021.94
2024-05-09T11:13:20.648Z,1021.89
2024-05-09T11:14:20.554Z,1021.82
2024-05-09T11:15:20.531Z,1021.85
2024-05-09T11:16:26.574Z,1021.84
2024-05-09T11:17:26.695Z,1021.83
2024-05-09T11:18:28.161Z,1021.79
2024-05-09T11:19:26.684Z,1021.82
2024-05-09T11:20:29.666Z,1021.78
2024-05-09T11:21:26.476Z,1021.74
2024-05-09T11:22:26.511Z,1021.78
2024-05-09T11:23:20.418Z,1021.75
2024-05-09T11:24:26.489Z,1021.68
2024-05-09T11:25:20.468Z,1021.68
2024-05-09T11:26:20.546Z,1021.68
2024-05-09T11:27:20.395Z,1021.64
2024-05-09T11:28:20.444Z,1021.64
2024-05-09T11:29:20.339Z,1021.61
2024-05-09T11:30:27.018Z,1021.62
2024-05-09T11:31:20.586Z,1021.61
2024-05-09T11:32:20.390Z,1021.57
2024-05-09T11:33:20.330Z,1021.54
2024-05-09T11:34:20.384Z,1021.52
2024-05-09T11:35:20.289Z,1021.50
2024-05-09T11:36:20.352Z,1021.51
2024-05-09T11:37:20.296Z,1021.53
2024-05-09T11:38:20.223Z,1021.48
2024-05-09T11:39:20.207Z,1021.51
2024-05-09T11:40:25.496Z,1021.42
2024-05-09T11:41:20.209Z,1021.44
2024-05-09T11:42:20.233Z,1021.43
2024-05-09T11:43:20.206Z,1021.41
2024-05-09T11:44:20.176Z,1021.42
2024-05-09T11:45:20.175Z,1021.44
2024-05-09T11:46:20.315Z,1021.43
2024-05-09T11:47:20.120Z,1021.41
2024-05-09T11:48:20.338Z,1021.39
2024-05-09T11:49:20.723Z,1021.42
2024-05-09T11:50:27.127Z,1021.43
2024-05-09T11:51:20.054Z,1021.41
2024-05-09T11:52:20.113Z,1021.37
2024-05-09T11:53:20.042Z,1021.33
2024-05-09T11:54:20.027Z,1021.34
2024-05-09T11:55:20.342Z,1021.32
2024-05-09T11:56:20.088Z,1021.28
2024-05-09T11:57:19.970Z,1021.24
2024-05-09T11:58:20.025Z,1021.30
2024-05-09T11:59:19.992Z,1021.26
2024-05-09T12:00:29.145Z,1021.26
2024-05-09T12:01:20.301Z,1021.25
2024-05-09T12:02:19.938Z,1021.24
2024-05-09T12:03:19.963Z,1021.21
2024-05-09T12:04:20.028Z,1021.16
2024-05-09T12:05:20.154Z,1021.17
2024-05-09T12:06:19.880Z,1021.16
2024-05-09T12:07:20.104Z,1021.15
2024-05-09T12:08:19.855Z,1021.18
2024-05-09T12:09:19.847Z,1021.17